createdAt,value
2022-08-09T00:00:59.416Z,102026.73
2022-08-09T00:04:05.903Z,102030.95
2022-08-09T00:06:23.078Z,102030.14
2022-08-09T00:08:52.402Z,102031.84
2022-08-09T00:11:55.065Z,102035.84
2022-08-09T00:14:17.343Z,102041.76
2022-08-09T00:16:56.556Z,102040.52
2022-08-09T00:19:24.976Z,102043.34
2022-08-09T00:21:57.059Z,102046.20
2022-08-09T00:24:27.566Z,102044.19
2022-08-09T00:26:57.310Z,102040.38
2022-08-09T00:29:39.918Z,102034.68
2022-08-09T00:32:25.489Z,102034.17
2022-08-09T00:34:56.126Z,102032.95
2022-08-09T00:37:24.874Z,102032.17
2022-08-09T00:40:13.129Z,102027.25
2022-08-09T00:44:16.199Z,102021.98
2022-08-09T00:45:30.598Z,102024.03
2022-08-09T00:48:05.573Z,102023.94
2022-08-09T00:50:37.902Z,102022.97
2022-08-09T00:53:10.336Z,102024.67
2022-08-09T00:56:05.534Z,102025.30
2022-08-09T00:58:30.937Z,102022.41
2022-08-09T01:01:00.145Z,102022.42
2022-08-09T01:03:45.545Z,102021.33
2022-08-09T01:06:21.022Z,102024.14
2022-08-09T01:08:59.734Z,102021.11
2022-08-09T01:11:42.025Z,102022.63
2022-08-09T01:14:31.906Z,102023.34
2022-08-09T01:17:08.875Z,102024.36
2022-08-09T01:19:57.102Z,102024.49
2022-08-09T01:22:59.487Z,102023.36
2022-08-09T01:25:50.180Z,102024.08
2022-08-09T01:28:21.209Z,102027.99
2022-08-09T01:30:54.824Z,102026.86
2022-08-09T01:33:30.553Z,102026.59
2022-08-09T01:36:04.403Z,102027.79
2022-08-09T01:38:38.564Z,102027.77
2022-08-09T01:41:13.976Z,102027.73
2022-08-09T01:43:51.993Z,102030.21
2022-08-09T01:46:26.868Z,102033.38
2022-08-09T01:49:00.270Z,102035.71
2022-08-09T01:51:44.480Z,102035.70
2022-08-09T01:54:25.825Z,102037.46
2022-08-09T01:56:56.988Z,102032.09
2022-08-09T01:59:27.188Z,102031.70
2022-08-09T02:02:02.984Z,102033.30
2022-08-09T02:04:33.861Z,102030.40
2022-08-09T02:07:18.347Z,102030.54
2022-08-09T02:10:06.810Z,102033.70
2022-08-09T02:12:36.552Z,102034.92
2022-08-09T02:15:11.900Z,102033.77
2022-08-09T02:18:00.512Z,102032.94
2022-08-09T02:20:43.379Z,102032.55
2022-08-09T02:23:20.514Z,102030.92
2022-08-09T02:25:55.842Z,102031.60
2022-08-09T02:28:31.589Z,102032.79
2022-08-09T02:31:03.124Z,102030.40
2022-08-09T02:34:07.530Z,102034.30
2022-08-09T02:36:32.020Z,102030.52
2022-08-09T02:39:05.390Z,102034.17
2022-08-09T02:41:49.258Z,102033.25
2022-08-09T02:44:29.282Z,102033.59
2022-08-09T02:47:04.141Z,102036.21
2022-08-09T02:49:41.010Z,102035.61
2022-08-09T02:52:14.917Z,102036.29
2022-08-09T02:54:54.119Z,102036.42
2022-08-09T02:57:25.802Z,102038.33
2022-08-09T03:00:11.626Z,102036.52
2022-08-09T03:02:58.411Z,102043.07
2022-08-09T03:05:34.463Z,102044.71
2022-08-09T03:08:07.150Z,102047.54
2022-08-09T03:10:37.788Z,102052.81
2022-08-09T03:13:08.322Z,102049.60
2022-08-09T03:15:40.453Z,102052.21
2022-08-09T03:18:31.014Z,102051.05
2022-08-09T03:21:02.577Z,102052.67
2022-08-09T03:23:31.386Z,102051.02
2022-08-09T03:26:04.888Z,102045.08
2022-08-09T03:28:35.655Z,102044.20
2022-08-09T03:31:10.196Z,102042.54
2022-08-09T03:33:54.481Z,102040.89
2022-08-09T03:36:27.396Z,102041.27
2022-08-09T03:38:56.770Z,102039.99
2022-08-09T03:41:30.087Z,102037.30
2022-08-09T03:44:13.361Z,102040.48
2022-08-09T03:46:44.288Z,102042.20
2022-08-09T03:49:19.005Z,102039.90
2022-08-09T03:51:56.821Z,102042.55
2022-08-09T03:54:32.625Z,102047.10
2022-08-09T03:57:12.262Z,102048.56
2022-08-09T03:59:53.910Z,102048.76
2022-08-09T04:02:27.978Z,102049.48
2022-08-09T04:04:59.156Z,102051.42
2022-08-09T04:07:47.284Z,102053.02
2022-08-09T04:10:29.296Z,102054.99
2022-08-09T04:13:01.270Z,102053.05
2022-08-09T04:16:18.380Z,102051.24
2022-08-09T04:18:22.057Z,102051.77
2022-08-09T04:20:51.345Z,102050.76
2022-08-09T04:23:24.562Z,102050.82
2022-08-09T04:25:54.567Z,102056.52
2022-08-09T04:28:30.573Z,102056.23
2022-08-09T04:31:09.694Z,102056.99
2022-08-09T04:33:47.349Z,102063.09
2022-08-09T04:36:20.749Z,102058.90
2022-08-09T04:38:52.116Z,102062.35
2022-08-09T04:41:23.622Z,102064.72
2022-08-09T04:44:05.281Z,102068.05
2022-08-09T04:46:38.055Z,102069.36
2022-08-09T04:49:52.254Z,102070.17
2022-08-09T04:52:12.440Z,102071.86
2022-08-09T04:54:51.112Z,102072.72
2022-08-09T04:57:21.511Z,102077.62
2022-08-09T04:59:54.805Z,102079.33
2022-08-09T05:02:23.780Z,102080.48
2022-08-09T05:04:56.178Z,102084.77
2022-08-09T05:07:29.124Z,102082.74
2022-08-09T05:10:01.642Z,102082.88
2022-08-09T05:12:33.046Z,102086.42
2022-08-09T05:15:11.120Z,102082.30
2022-08-09T05:18:37.604Z,102088.30
2022-08-09T05:20:30.451Z,102086.69
2022-08-09T05:23:54.845Z,102091.90
2022-08-09T05:25:50.641Z,102095.30
2022-08-09T05:28:21.016Z,102093.30
2022-08-09T05:30:51.638Z,102098.77
2022-08-09T05:33:26.400Z,102096.13
2022-08-09T05:36:05.857Z,102097.95
2022-08-09T05:38:35.689Z,102099.23
2022-08-09T05:41:08.482Z,102100.02
2022-08-09T05:43:45.309Z,102100.15
2022-08-09T05:46:17.539Z,102100.34
2022-08-09T05:48:48.754Z,102098.98
2022-08-09T05:51:42.394Z,102099.39
2022-08-09T05:54:17.819Z,102098.95
2022-08-09T05:57:01.109Z,102099.96
2022-08-09T05:59:29.519Z,102094.06
2022-08-09T06:01:58.974Z,102098.35
2022-08-09T06:04:34.936Z,102102.82
2022-08-09T06:07:03.965Z,102103.21
2022-08-09T06:09:53.940Z,102103.16
2022-08-09T06:12:22.891Z,102107.00
2022-08-09T06:14:54.891Z,102112.61
2022-08-09T06:17:23.413Z,102112.00
2022-08-09T06:19:52.094Z,102114.98
2022-08-09T06:22:40.946Z,102113.32
2022-08-09T06:25:31.214Z,102107.00
2022-08-09T06:28:39.639Z,102116.30
2022-08-09T06:31:12.493Z,102116.83
2022-08-09T06:33:42.183Z,102116.83
2022-08-09T06:36:27.377Z,102119.61
2022-08-09T06:38:58.993Z,102118.77
2022-08-09T06:42:01.249Z,102121.89
2022-08-09T06:44:19.810Z,102123.09
2022-08-09T06:46:50.788Z,102124.20
2022-08-09T06:49:45.123Z,102125.80
2022-08-09T06:52:15.979Z,102128.36
2022-08-09T06:54:44.675Z,102130.55
2022-08-09T06:57:13.586Z,102130.36
2022-08-09T07:00:56.552Z,102133.35
2022-08-09T07:02:32.079Z,102133.31
2022-08-09T07:05:01.656Z,102133.09
2022-08-09T07:08:00.144Z,102136.79
2022-08-09T07:10:29.375Z,102138.30
2022-08-09T07:12:58.560Z,102139.88
2022-08-09T07:16:35.380Z,102140.38
2022-08-09T07:18:15.795Z,102141.14
2022-08-09T07:20:47.703Z,102137.36
2022-08-09T07:23:18.232Z,102135.02
2022-08-09T07:25:48.274Z,102137.02
2022-08-09T07:28:28.216Z,102135.77
2022-08-09T07:30:57.204Z,102139.59
2022-08-09T07:33:26.224Z,102141.46
2022-08-09T07:35:59.549Z,102144.39
2022-08-09T07:38:31.154Z,102142.65
2022-08-09T07:41:11.458Z,102144.39
2022-08-09T07:43:56.024Z,102143.29
2022-08-09T07:46:27.886Z,102141.09
2022-08-09T07:48:59.222Z,102139.44
2022-08-09T07:52:06.168Z,102138.50
2022-08-09T07:54:27.517Z,102135.38
2022-08-09T07:56:57.083Z,102134.65
2022-08-09T07:59:34.430Z,102134.36
2022-08-09T08:02:19.207Z,102134.36
2022-08-09T08:04:49.247Z,102133.04
2022-08-09T08:08:42.433Z,102132.23
2022-08-09T08:10:11.349Z,102135.42
2022-08-09T08:12:45.240Z,102131.19
2022-08-09T08:15:17.706Z,102133.39
2022-08-09T08:17:55.244Z,102130.23
2022-08-09T08:20:32.424Z,102131.50
2022-08-09T08:23:16.156Z,102129.00
2022-08-09T08:25:50.141Z,102130.81
2022-08-09T08:28:31.836Z,102130.31
2022-08-09T08:31:14.164Z,102132.09
2022-08-09T08:33:54.087Z,102135.88
2022-08-09T08:36:28.738Z,102136.59
2022-08-09T08:38:58.498Z,102135.11
2022-08-09T08:41:50.944Z,102136.73
2022-08-09T08:44:27.220Z,102136.46
2022-08-09T08:47:02.613Z,102139.98
2022-08-09T08:49:47.023Z,102139.81
2022-08-09T08:52:52.674Z,102139.02
2022-08-09T08:55:10.059Z,102136.27
2022-08-09T08:57:38.772Z,102137.78
2022-08-09T09:00:20.532Z,102137.50
2022-08-09T09:02:52.617Z,102137.98
2022-08-09T09:05:32.956Z,102136.38
2022-08-09T09:08:30.963Z,102136.84
2022-08-09T09:11:03.904Z,102132.60
2022-08-09T09:13:55.132Z,102130.42
2022-08-09T09:16:30.341Z,102129.41
2022-08-09T09:22:04.297Z,102120.91
2022-08-09T09:24:38.027Z,102122.76
2022-08-09T09:27:09.775Z,102124.79
2022-08-09T09:30:13.822Z,102119.58
2022-08-09T09:32:43.140Z,102126.23
2022-08-09T09:35:13.005Z,102127.18
2022-08-09T09:37:46.215Z,102129.57
2022-08-09T09:40:14.775Z,102129.40
2022-08-09T09:42:56.365Z,102127.59
2022-08-09T09:45:26.977Z,102129.24
2022-08-09T09:48:02.849Z,102131.92
2022-08-09T09:50:51.076Z,102132.77
2022-08-09T09:53:34.398Z,102129.90
2022-08-09T09:56:30.817Z,102131.22
2022-08-09T09:58:58.995Z,102129.45
2022-08-09T10:01:36.828Z,102126.66
2022-08-09T10:04:16.262Z,102125.89
2022-08-09T10:06:54.292Z,102125.77
2022-08-09T10:09:24.105Z,102125.94
2022-08-09T10:12:12.584Z,102126.11
2022-08-09T10:14:51.736Z,102126.16
2022-08-09T10:17:40.241Z,102125.77
2022-08-09T10:20:27.646Z,102125.40
2022-08-09T10:23:16.974Z,102125.06
2022-08-09T10:26:07.795Z,102125.44
2022-08-09T10:28:37.417Z,102126.63
2022-08-09T10:34:09.868Z,102122.58
2022-08-09T10:36:45.276Z,102118.19
2022-08-09T10:39:18.399Z,102116.93
2022-08-09T10:41:48.429Z,102116.56
2022-08-09T10:44:19.667Z,102115.33
2022-08-09T10:48:12.703Z,102115.06
2022-08-09T10:50:15.074Z,102118.89
2022-08-09T10:53:03.768Z,102118.85
2022-08-09T10:55:55.000Z,102113.96
2022-08-09T10:58:33.922Z,102112.86
2022-08-09T11:03:02.734Z,102110.71
2022-08-09T11:04:19.699Z,102114.73
2022-08-09T11:07:58.124Z,102118.91
2022-08-09T11:10:56.322Z,102121.14
2022-08-09T11:13:53.977Z,102121.41
2022-08-09T11:16:37.039Z,102121.84
2022-08-09T11:19:10.575Z,102123.96
2022-08-09T11:22:16.571Z,102129.58
2022-08-09T11:25:04.821Z,102138.80
2022-08-09T11:28:03.692Z,102138.06
2022-08-09T11:30:34.597Z,102133.70
2022-08-09T11:33:10.661Z,102126.51
2022-08-09T11:35:49.491Z,102122.84
2022-08-09T11:38:22.293Z,102121.63
2022-08-09T11:40:58.780Z,102115.88
2022-08-09T11:43:42.541Z,102117.48
2022-08-09T11:46:11.462Z,102117.30
2022-08-09T11:48:50.595Z,102119.30
2022-08-09T11:52:59.206Z,102122.62
2022-08-09T11:54:28.781Z,102124.73
2022-08-09T11:58:00.824Z,102129.04
2022-08-09T12:00:28.538Z,102135.23
2022-08-09T12:02:58.670Z,102148.86
2022-08-09T12:05:39.588Z,102153.35
2022-08-09T12:08:20.048Z,102161.66
2022-08-09T12:10:52.945Z,102168.34
2022-08-09T12:14:07.133Z,102172.16
2022-08-09T12:16:37.832Z,102164.08
2022-08-09T12:19:09.899Z,102155.77
2022-08-09T12:21:50.601Z,102150.92
2022-08-09T12:24:24.640Z,102150.64
2022-08-09T12:28:58.370Z,102147.45
2022-08-09T12:30:01.629Z,102146.09
2022-08-09T12:32:44.213Z,102143.10
2022-08-09T12:35:19.020Z,102142.13
2022-08-09T12:37:50.713Z,102135.55
2022-08-09T12:40:23.350Z,102133.20
2022-08-09T12:42:54.595Z,102136.55
2022-08-09T12:45:33.295Z,102134.62
2022-08-09T12:48:20.137Z,102131.66
2022-08-09T12:50:59.596Z,102129.42
2022-08-09T12:53:37.201Z,102132.26
2022-08-09T12:56:16.081Z,102133.68
2022-08-09T12:59:07.708Z,102133.19
2022-08-09T13:01:38.268Z,102131.96
2022-08-09T13:04:33.333Z,102131.30
2022-08-09T13:07:15.660Z,102131.62
2022-08-09T13:09:56.032Z,102133.01
2022-08-09T13:12:30.642Z,102139.20
2022-08-09T13:15:08.968Z,102134.17
2022-08-09T13:18:02.947Z,102129.34
2022-08-09T13:20:37.884Z,102126.96
2022-08-09T13:24:07.021Z,102118.69
2022-08-09T13:26:36.864Z,102114.76
2022-08-09T13:29:13.028Z,102110.42
2022-08-09T13:32:16.645Z,102113.59
2022-08-09T13:34:47.969Z,102109.30
2022-08-09T13:37:50.589Z,102113.37
2022-08-09T13:41:54.896Z,102111.23
2022-08-09T13:42:57.828Z,102112.80
2022-08-09T13:45:32.189Z,102111.22
2022-08-09T13:48:15.578Z,102111.00
2022-08-09T13:50:44.225Z,102110.02
2022-08-09T13:53:17.050Z,102107.39
2022-08-09T13:55:47.829Z,102105.36
2022-08-09T13:58:19.377Z,102100.92
2022-08-09T14:00:52.475Z,102102.77
2022-08-09T14:04:02.436Z,102101.83
2022-08-09T14:06:14.698Z,102106.21
2022-08-09T14:09:17.448Z,102105.82
2022-08-09T14:11:47.780Z,102104.16
2022-08-09T14:14:25.799Z,102098.66
2022-08-09T14:16:56.667Z,102099.80
2022-08-09T14:19:27.230Z,102102.74
2022-08-09T14:22:02.245Z,102095.86
2022-08-09T14:24:32.637Z,102091.28
2022-08-09T14:27:02.402Z,102090.77
2022-08-09T14:30:34.225Z,102087.88
2022-08-09T14:32:20.036Z,102093.61
2022-08-09T14:34:59.406Z,102086.03
2022-08-09T14:37:28.740Z,102083.91
2022-08-09T14:40:17.058Z,102080.40
2022-08-09T14:42:45.740Z,102083.41
2022-08-09T14:46:40.385Z,102083.10
2022-08-09T14:48:03.509Z,102079.48
2022-08-09T14:50:34.634Z,102086.10
2022-08-09T14:53:11.737Z,102082.88
2022-08-09T14:55:41.986Z,102086.19
2022-08-09T14:58:11.633Z,102085.77
2022-08-09T15:00:42.626Z,102082.05
2022-08-09T15:03:20.199Z,102083.56
2022-08-09T15:05:52.351Z,102083.21
2022-08-09T15:08:24.323Z,102079.98
2022-08-09T15:11:00.393Z,102083.12
2022-08-09T15:13:47.809Z,102086.67
2022-08-09T15:16:19.330Z,102083.80
2022-08-09T15:18:49.475Z,102082.83
2022-08-09T15:22:01.802Z,102081.52
2022-08-09T15:24:12.688Z,102080.78
2022-08-09T15:26:46.593Z,102082.33
2022-08-09T15:30:57.719Z,102082.96
2022-08-09T15:32:28.378Z,102086.98
2022-08-09T15:34:59.082Z,102088.84
2022-08-09T15:37:36.926Z,102092.19
2022-08-09T15:40:11.803Z,102091.18
2022-08-09T15:42:42.490Z,102089.58
2022-08-09T15:45:14.494Z,102089.83
2022-08-09T15:48:03.374Z,102086.30
2022-08-09T15:50:39.198Z,102086.96
2022-08-09T15:54:02.037Z,102087.78
2022-08-09T15:59:37.199Z,102087.11
2022-08-09T16:02:06.349Z,102086.11
2022-08-09T16:04:36.448Z,102086.59
2022-08-09T16:07:05.671Z,102088.61
2022-08-09T16:09:57.878Z,102093.75
2022-08-09T16:12:26.324Z,102095.61
2022-08-09T16:14:59.532Z,102096.46
2022-08-09T16:17:28.967Z,102093.84
2022-08-09T16:20:04.842Z,102094.59
2022-08-09T16:22:42.425Z,102095.19
2022-08-09T16:25:17.072Z,102097.08
2022-08-09T16:28:05.808Z,102100.23
2022-08-09T16:30:34.279Z,102103.26
2022-08-09T16:33:08.933Z,102100.73
2022-08-09T16:35:57.270Z,102098.75
2022-08-09T16:38:27.258Z,102096.33
2022-08-09T16:40:55.739Z,102095.30
2022-08-09T16:43:26.632Z,102093.97
2022-08-09T16:45:56.059Z,102095.51
2022-08-09T16:48:50.430Z,102092.73
2022-08-09T16:51:14.656Z,102098.17
2022-08-09T16:59:57.523Z,102097.91
2022-08-09T17:02:27.706Z,102101.42
2022-08-09T17:04:56.516Z,102100.38
2022-08-09T17:08:46.437Z,102100.79
2022-08-09T17:10:17.338Z,102099.92
2022-08-09T17:12:49.466Z,102097.13
2022-08-09T17:15:58.928Z,102095.11
2022-08-09T17:18:08.392Z,102097.58
2022-08-09T17:20:49.161Z,102097.66
2022-08-09T17:23:21.368Z,102099.58
2022-08-09T17:26:06.197Z,102098.00
2022-08-09T17:28:36.113Z,102096.78
2022-08-09T17:31:05.439Z,102097.09
2022-08-09T17:33:37.711Z,102100.71
2022-08-09T17:36:09.169Z,102098.06
2022-08-09T17:38:57.926Z,102095.34
2022-08-09T17:41:38.598Z,102088.58
2022-08-09T17:44:38.830Z,102085.33
2022-08-09T17:46:57.748Z,102088.92
2022-08-09T17:49:26.336Z,102090.25
2022-08-09T17:51:58.817Z,102089.25
2022-08-09T17:54:29.778Z,102089.11
2022-08-09T17:56:58.433Z,102091.47
2022-08-09T18:00:58.462Z,102091.10
2022-08-09T18:20:58.881Z,102107.13
2022-08-09T18:22:19.241Z,102112.09
2022-08-09T18:24:50.270Z,102115.00
2022-08-09T18:28:02.927Z,102112.40
2022-08-09T18:30:38.594Z,102118.23
2022-08-09T18:32:57.339Z,102122.48
2022-08-09T18:35:48.006Z,102124.59
2022-08-09T18:38:14.917Z,102138.83
2022-08-09T18:40:44.451Z,102145.09
2022-08-09T18:43:13.276Z,102144.08
2022-08-09T18:46:47.502Z,102144.30
2022-08-09T18:48:33.508Z,102150.41
2022-08-09T18:51:04.432Z,102153.36
2022-08-09T18:53:56.173Z,102161.53
2022-08-09T19:03:57.772Z,102162.50
2022-08-09T19:06:23.127Z,102161.85
2022-08-09T19:09:02.255Z,102160.88
2022-08-09T19:11:37.506Z,102161.14
2022-08-09T19:14:10.243Z,102169.31
2022-08-09T19:16:50.214Z,102167.77
2022-08-09T19:19:25.529Z,102170.59
2022-08-09T19:22:04.896Z,102172.60
2022-08-09T19:25:09.884Z,102171.23
2022-08-09T19:27:25.941Z,102172.86
2022-08-09T19:30:24.769Z,102175.66
2022-08-09T19:32:45.893Z,102175.20
2022-08-09T19:35:26.265Z,102171.70
2022-08-09T19:37:57.771Z,102168.21
2022-08-09T19:40:33.200Z,102170.28
2022-08-09T19:43:03.620Z,102169.66
2022-08-09T19:45:40.206Z,102169.08
2022-08-09T19:48:11.873Z,102167.95
2022-08-09T19:50:48.951Z,102170.90
2022-08-09T19:53:20.822Z,102175.48
2022-08-09T19:56:02.709Z,102175.77
2022-08-09T19:58:35.212Z,102178.16
2022-08-09T20:01:04.442Z,102181.63
2022-08-09T20:20:29.379Z,102178.63
2022-08-09T20:22:58.487Z,102177.17
2022-08-09T20:25:28.698Z,102174.80
2022-08-09T20:28:06.849Z,102179.41
2022-08-09T20:30:35.482Z,102181.64
2022-08-09T20:33:04.037Z,102184.31
2022-08-09T20:35:35.224Z,102184.16
2022-08-09T20:38:23.938Z,102183.19
2022-08-09T20:40:52.516Z,102184.02
2022-08-09T20:43:24.599Z,102180.35
2022-08-09T20:46:01.309Z,102183.77
2022-08-09T20:48:42.749Z,102184.61
2022-08-09T20:51:19.629Z,102183.78
2022-08-09T20:53:50.665Z,102185.40
2022-08-09T20:56:21.801Z,102185.34
2022-08-09T20:58:54.717Z,102184.02
2022-08-09T21:01:34.887Z,102192.09
2022-08-09T21:05:57.264Z,102189.33
2022-08-09T21:07:14.041Z,102188.83
2022-08-09T21:09:56.769Z,102189.04
2022-08-09T21:12:56.426Z,102192.27
2022-08-09T21:15:23.715Z,102192.73
2022-08-09T21:18:21.742Z,102186.83
2022-08-09T21:20:55.206Z,102191.30
2022-08-09T21:23:36.081Z,102192.60
2022-08-09T21:26:15.625Z,102195.02
2022-08-09T21:28:55.497Z,102198.73
2022-08-09T21:31:48.580Z,102197.45
2022-08-09T21:34:14.253Z,102197.75
2022-08-09T21:36:55.864Z,102198.02
2022-08-09T21:39:28.092Z,102203.30
2022-08-09T21:42:03.813Z,102205.31
2022-08-09T21:44:35.424Z,102206.25
2022-08-09T21:47:08.642Z,102206.44
2022-08-09T21:49:42.920Z,102209.31
2022-08-09T21:52:14.807Z,102208.67
2022-08-09T21:54:59.439Z,102211.30
2022-08-09T21:57:39.459Z,102211.20
2022-08-09T22:00:25.968Z,102211.83
2022-08-09T22:02:58.090Z,102212.31
2022-08-09T22:05:37.089Z,102209.59
2022-08-09T22:08:14.683Z,102209.71
2022-08-09T22:11:00.512Z,102210.98
2022-08-09T22:13:36.759Z,102212.10
2022-08-09T22:16:09.082Z,102214.52
2022-08-09T22:18:44.133Z,102214.04
2022-08-09T22:21:24.712Z,102210.03
2022-08-09T22:23:59.298Z,102212.29
2022-08-09T22:26:35.262Z,102209.45
2022-08-09T22:29:09.304Z,102213.94
2022-08-09T22:31:50.399Z,102212.69
2022-08-09T22:34:26.444Z,102213.38
2022-08-09T22:36:56.169Z,102211.72
2022-08-09T22:39:55.978Z,102211.86
2022-08-09T22:42:21.364Z,102212.66
2022-08-09T22:45:00.116Z,102210.47
2022-08-09T22:48:15.364Z,102209.38
2022-08-09T22:50:32.736Z,102209.09
2022-08-09T22:53:04.013Z,102209.02
2022-08-09T22:55:39.697Z,102210.91
2022-08-09T22:58:32.888Z,102211.38
2022-08-09T23:01:04.801Z,102211.58
2022-08-09T23:04:03.273Z,102210.77
2022-08-09T23:06:35.142Z,102215.08
2022-08-09T23:09:07.528Z,102215.63
2022-08-09T23:11:36.023Z,102217.39
2022-08-09T23:14:10.050Z,102215.23
2022-08-09T23:16:45.735Z,102214.55
2022-08-09T23:19:14.158Z,102210.55
2022-08-09T23:21:42.858Z,102208.08
2022-08-09T23:24:11.307Z,102205.29
2022-08-09T23:26:40.232Z,102209.98
2022-08-09T23:29:12.942Z,102208.34
2022-08-09T23:31:41.963Z,102207.48
2022-08-09T23:34:10.512Z,102204.81
2022-08-09T23:36:39.110Z,102204.81
2022-08-09T23:39:08.007Z,102204.12
2022-08-09T23:41:36.775Z,102201.88
2022-08-09T23:44:05.887Z,102205.59
2022-08-09T23:46:34.532Z,102205.35
2022-08-09T23:49:03.522Z,102205.09
2022-08-09T23:51:32.055Z,102206.48
2022-08-09T23:54:02.952Z,102207.52
2022-08-09T23:56:53.082Z,102207.38
2022-08-09T23:59:23.560Z,102210.29
